Time;durP1;ratioP1;P1;durP2;ratioP2;P2;SDS_P1;SDS_P2;PMS_P1;PMS_P2;Temp;Humidity;BMP_temperature;BMP_pressure;BME280_temperature;BME280_humidity;BME280_pressure;Samples;Min_cycle;Max_cycle;Signal;HPM_P1;HPM_P2
2022/12/26 00:01:47;;;;;;;27.08;17.77;;;8.60;99.90;;;;;;5030826;28;20422;-56
2022/12/26 00:04:13;;;;;;;29.67;19.02;;;8.60;99.90;;;;;;5029874;28;20037;-58
2022/12/26 00:06:39;;;;;;;;;;;8.60;99.90;;;;;;5041033;28;20044;-57
2022/12/26 00:09:05;;;;;;;26.52;17.73;;;8.60;99.90;;;;;;5050109;28;20366;-58
2022/12/26 00:11:31;;;;;;;30.60;16.70;;;8.60;99.90;;;;;;5050244;28;20068;-56
2022/12/26 00:14:00;;;;;;;23.38;16.17;;;8.60;99.90;;;;;;5049130;28;20463;-57
2022/12/26 00:16:27;;;;;;;21.83;15.43;;;8.60;99.90;;;;;;5049745;28;20051;-57
2022/12/26 00:18:53;;;;;;;18.88;13.07;;;8.60;99.90;;;;;;5049663;28;20041;-58
2022/12/26 00:21:20;;;;;;;18.77;13.10;;;8.60;99.90;;;;;;5050071;28;20029;-57
2022/12/26 00:23:46;;;;;;;21.52;14.40;;;8.60;99.90;;;;;;5048310;28;20032;-57
2022/12/26 00:26:18;;;;;;;14.20;11.95;;;8.60;99.90;;;;;;5050076;28;20090;-57
2022/12/26 00:28:45;;;;;;;15.48;11.43;;;8.60;99.90;;;;;;5049503;28;20056;-58
2022/12/26 00:31:19;;;;;;;17.73;11.75;;;8.60;99.90;;;;;;5039203;28;20125;-57
2022/12/26 00:33:45;;;;;;;14.52;9.80;;;8.60;99.90;;;;;;5029430;28;20049;-57
2022/12/26 00:36:14;;;;;;;18.17;11.60;;;8.60;99.90;;;;;;5048222;28;20033;-58
2022/12/26 00:38:40;;;;;;;16.45;11.63;;;8.60;99.90;;;;;;5049575;28;20041;-57
2022/12/26 00:41:07;;;;;;;14.55;11.07;;;8.60;99.90;;;;;;5050096;28;20112;-57
2022/12/26 00:43:32;;;;;;;;;;;8.60;99.90;;;;;;5049366;28;20036;-58
2022/12/26 00:45:59;;;;;;;25.08;14.68;;;8.60;99.90;;;;;;5049613;28;19916;-58
2022/12/26 00:48:24;;;;;;;17.55;12.73;;;8.60;99.90;;;;;;5049646;28;20075;-58
2022/12/26 00:50:50;;;;;;;20.07;14.73;;;8.60;99.90;;;;;;5049320;28;20072;-58
2022/12/26 00:53:16;;;;;;;22.90;15.45;;;8.60;99.90;;;;;;5048571;28;20044;-58
2022/12/26 00:55:41;;;;;;;22.13;14.52;;;8.60;99.90;;;;;;5049554;28;20048;-58
2022/12/26 00:58:07;;;;;;;19.57;13.50;;;8.60;99.90;;;;;;5049354;28;20384;-57
2022/12/26 01:00:34;;;;;;;23.27;15.07;;;8.60;99.90;;;;;;5049267;28;20029;-58
2022/12/26 01:03:00;;;;;;;23.90;13.95;;;8.60;99.90;;;;;;5049048;28;20522;-58
2022/12/26 01:05:25;;;;;;;20.92;13.70;;;8.60;99.90;;;;;;5048927;28;20071;-57
2022/12/26 01:07:51;;;;;;;23.90;13.70;;;8.60;99.90;;;;;;5030053;28;20041;-56
2022/12/26 01:10:17;;;;;;;20.60;13.37;;;8.60;99.90;;;;;;5029715;28;20048;-56
2022/12/26 01:12:42;;;;;;;19.97;13.60;;;8.60;99.90;;;;;;5029631;28;20045;-58
2022/12/26 01:15:08;;;;;;;22.27;14.53;;;8.60;99.90;;;;;;5028736;28;20068;-57
2022/12/26 01:17:34;;;;;;;20.63;14.35;;;8.60;99.90;;;;;;5029639;28;20041;-56
2022/12/26 01:20:00;;;;;;;20.63;13.82;;;8.60;99.90;;;;;;5048194;28;20099;-56
2022/12/26 01:22:26;;;;;;;21.58;14.68;;;8.60;99.90;;;;;;5049397;28;20340;-57
2022/12/26 01:24:56;;;;;;;20.88;14.52;;;8.60;99.90;;;;;;5048681;28;20136;-57
2022/12/26 01:27:23;;;;;;;24.33;15.35;;;8.60;99.90;;;;;;5049494;28;20395;-56
2022/12/26 01:29:49;;;;;;;25.20;16.10;;;8.60;99.90;;;;;;5049707;28;20045;-56
2022/12/26 01:32:15;;;;;;;;;;;8.60;99.90;;;;;;5049157;28;20045;-57
2022/12/26 01:34:41;;;;;;;25.52;16.65;;;8.60;99.90;;;;;;5047605;28;19916;-55
2022/12/26 01:37:06;;;;;;;25.70;16.30;;;8.60;99.90;;;;;;5048758;28;20044;-57
2022/12/26 01:39:32;;;;;;;25.37;16.40;;;8.60;99.90;;;;;;5081168;28;20041;-56
2022/12/26 01:41:57;;;;;;;31.07;17.57;;;8.60;99.90;;;;;;5046955;28;20037;-57
2022/12/26 01:44:54;;;;;;;31.37;17.20;;;8.70;99.90;;;;;;5028379;28;20081;-57
2022/12/26 01:47:22;;;;;;;28.65;16.92;;;8.70;99.90;;;;;;5041173;28;20328;-56
2022/12/26 01:49:51;;;;;;;32.63;18.42;;;8.70;99.90;;;;;;5049526;28;20041;-54
2022/12/26 01:52:24;;;;;;;31.58;18.48;;;8.70;99.90;;;;;;5049158;28;20056;-56
2022/12/26 01:54:52;;;;;;;31.23;19.60;;;8.70;99.90;;;;;;5048295;28;20453;-56
2022/12/26 01:57:29;;;;;;;30.95;20.23;;;8.70;99.90;;;;;;5048628;28;20072;-57
2022/12/26 01:59:57;;;;;;;34.33;21.05;;;8.70;99.90;;;;;;5049392;28;20045;-58
2022/12/26 02:02:25;;;;;;;35.65;23.55;;;8.70;99.90;;;;;;5049109;28;20041;-57
2022/12/26 02:07:43;;;;;;;30.88;21.95;;;8.70;99.90;;;;;;5048483;28;20060;-56
2022/12/26 02:10:15;;;;;;;29.67;19.85;;;8.80;99.90;;;;;;5048765;28;20414;-55
2022/12/26 02:12:41;;;;;;;33.42;22.17;;;8.80;99.90;;;;;;5050829;28;20049;-59
2022/12/26 02:15:11;;;;;;;30.75;22.13;;;8.80;99.90;;;;;;5051866;28;20036;-55
2022/12/26 02:17:37;;;;;;;34.33;22.52;;;8.80;99.90;;;;;;5052263;28;20044;-57
2022/12/26 02:20:04;;;;;;;;;;;8.80;99.90;;;;;;5053192;28;20044;-57
2022/12/26 02:22:55;;;;;;;35.60;21.48;;;8.80;99.90;;;;;;5052231;28;20000;-56
2022/12/26 02:25:38;;;;;;;32.25;21.73;;;8.80;99.90;;;;;;5052556;28;20094;-56
2022/12/26 02:28:15;;;;;;;37.85;22.48;;;8.80;99.90;;;;;;5052413;28;20068;-57
2022/12/26 02:31:00;;;;;;;30.92;21.00;;;8.80;99.90;;;;;;5052859;28;20397;-58
2022/12/26 02:33:39;;;;;;;37.05;21.80;;;8.80;99.90;;;;;;5052119;28;20421;-56
2022/12/26 02:36:16;;;;;;;34.08;22.17;;;8.80;99.90;;;;;;5052103;28;20502;-57
2022/12/26 02:39:25;;;;;;;41.35;25.70;;;8.80;99.90;;;;;;5051900;28;20044;-58
2022/12/26 02:42:18;;;;;;;43.53;25.77;;;8.90;99.90;;;;;;5052504;28;20433;-57
2022/12/26 02:48:23;;;;;;;43.95;25.40;;;8.90;99.90;;;;;;5044304;28;20080;-57
2022/12/26 03:14:35;;;;;;;40.70;23.90;;;9.00;99.90;;;;;;5050011;28;20601;-58
2022/12/26 03:17:18;;;;;;;37.75;24.17;;;9.00;99.90;;;;;;5051086;28;20073;-58
2022/12/26 03:19:58;;;;;;;40.40;25.35;;;9.10;99.90;;;;;;5050811;28;20528;-58
2022/12/26 03:22:44;;;;;;;42.05;25.30;;;9.10;99.90;;;;;;5030610;28;20040;-56
2022/12/26 03:28:00;;;;;;;34.65;22.35;;;9.10;99.90;;;;;;5031199;28;20053;-56
2022/12/26 03:35:55;;;;;;;34.70;22.23;;;9.20;99.90;;;;;;5051171;28;20465;-56
2022/12/26 03:38:34;;;;;;;44.05;25.35;;;9.10;99.90;;;;;;5050815;28;20045;-58
2022/12/26 04:19:59;;;;;;;37.75;23.17;;;9.00;99.90;;;;;;5048050;28;20053;-56
2022/12/26 04:46:00;;;;;;;46.17;27.80;;;9.10;99.90;;;;;;5007337;28;20042;-58
2022/12/26 04:51:09;;;;;;;43.53;25.70;;;9.10;99.90;;;;;;5001811;28;19918;-58
2022/12/26 04:53:35;;;;;;;38.07;23.23;;;9.00;99.90;;;;;;5006008;28;20491;-56
2022/12/26 04:56:01;;;;;;;44.87;26.93;;;9.10;99.90;;;;;;5006773;28;20038;-57
2022/12/26 04:58:26;;;;;;;45.03;25.93;;;9.10;99.90;;;;;;5006721;28;20045;-57
2022/12/26 05:09:32;;;;;;;45.33;25.97;;;9.10;99.90;;;;;;5006622;28;20065;-57
2022/12/26 05:11:53;;;;;;;42.25;25.48;;;9.00;99.90;;;;;;5007332;28;20046;-57
2022/12/26 05:14:19;;;;;;;38.70;24.37;;;9.00;99.90;;;;;;5030626;28;20510;-58
2022/12/26 05:30:27;;;;;;;38.88;25.35;;;9.00;99.90;;;;;;5049922;28;20037;-58
2022/12/26 05:35:38;;;;;;;35.53;23.08;;;8.90;99.90;;;;;;5049488;28;20316;-57
2022/12/26 05:38:04;;;;;;;37.65;24.48;;;8.90;99.90;;;;;;5049158;28;20414;-58
2022/12/26 05:40:29;;;;;;;39.22;24.42;;;8.90;99.90;;;;;;5049373;28;20041;-57
2022/12/26 05:42:55;;;;;;;38.57;23.47;;;8.90;99.90;;;;;;5049333;28;20125;-56
2022/12/26 05:45:20;;;;;;;38.60;25.03;;;8.80;99.90;;;;;;5048086;28;20402;-56
2022/12/26 05:47:46;;;;;;;38.30;23.97;;;8.80;99.90;;;;;;5053070;28;20271;-55
2022/12/26 05:50:11;;;;;;;34.33;22.33;;;8.80;99.90;;;;;;5053179;28;20040;-56
2022/12/26 05:52:37;;;;;;;38.20;24.70;;;8.70;99.90;;;;;;5053072;28;20067;-57
2022/12/26 05:55:03;;;;;;;37.80;25.03;;;8.70;99.90;;;;;;5051749;28;20044;-57
2022/12/26 05:57:28;;;;;;;36.53;24.00;;;8.70;99.90;;;;;;5052966;28;20037;-57
2022/12/26 05:59:54;;;;;;;33.67;23.07;;;8.70;99.90;;;;;;5051933;28;20060;-55
2022/12/26 06:02:20;;;;;;;35.33;23.03;;;8.70;99.90;;;;;;5053054;28;20113;-56
2022/12/26 06:04:45;;;;;;;32.83;21.97;;;8.60;99.90;;;;;;5051679;28;20037;-54
2022/12/26 06:07:11;;;;;;;30.70;20.77;;;8.60;99.90;;;;;;5052491;28;20044;-58
2022/12/26 06:09:36;;;;;;;35.27;24.77;;;8.60;99.90;;;;;;5052474;28;20177;-56
2022/12/26 06:12:02;;;;;;;32.30;23.20;;;8.60;99.90;;;;;;5052973;28;20473;-57
2022/12/26 06:14:27;;;;;;;30.35;21.50;;;8.60;99.90;;;;;;5051859;28;20049;-54
2022/12/26 06:16:53;;;;;;;32.70;21.93;;;8.50;99.90;;;;;;5052338;28;20037;-56
2022/12/26 06:19:19;;;;;;;32.53;21.80;;;8.50;99.90;;;;;;5052842;28;20040;-57
2022/12/26 06:21:44;;;;;;;31.10;22.83;;;8.50;99.90;;;;;;5052311;28;20067;-57
2022/12/26 06:24:10;;;;;;;31.87;23.10;;;8.50;99.90;;;;;;5050693;28;20379;-57
2022/12/26 06:26:36;;;;;;;29.53;21.30;;;8.50;99.90;;;;;;5036910;28;20037;-57
2022/12/26 06:29:02;;;;;;;;;;;8.50;99.90;;;;;;5034639;28;20049;-57
2022/12/26 06:31:28;;;;;;;33.08;21.30;;;8.50;99.90;;;;;;5052501;28;19916;-57
2022/12/26 06:33:57;;;;;;;28.13;20.77;;;8.60;99.90;;;;;;5051680;28;20695;-57
2022/12/26 06:36:24;;;;;;;27.52;20.40;;;8.60;99.90;;;;;;5051378;28;20033;-57
2022/12/26 06:38:50;;;;;;;31.52;21.83;;;8.60;99.90;;;;;;5050696;28;20037;-57
2022/12/26 06:41:18;;;;;;;32.90;22.92;;;8.60;99.90;;;;;;5047527;28;20041;-58
2022/12/26 06:43:44;;;;;;;29.98;22.67;;;8.60;99.90;;;;;;5051392;28;20037;-56
2022/12/26 06:46:12;;;;;;;32.92;23.35;;;8.60;99.90;;;;;;5043681;28;20268;-58
2022/12/26 06:48:38;;;;;;;34.30;23.50;;;8.60;99.90;;;;;;5033346;28;20052;-57
2022/12/26 06:51:05;;;;;;;29.47;20.77;;;8.60;99.90;;;;;;5051823;28;20045;-56
2022/12/26 06:53:33;;;;;;;31.90;22.90;;;8.60;99.90;;;;;;5050521;28;20049;-56
2022/12/26 06:56:14;;;;;;;31.80;21.77;;;8.50;99.90;;;;;;5046697;28;20048;-58
2022/12/26 06:58:40;;;;;;;35.05;23.80;;;8.50;99.90;;;;;;5051818;28;20186;-57
2022/12/26 07:01:11;;;;;;;34.47;24.45;;;8.50;99.90;;;;;;5051187;28;20586;-56
2022/12/26 07:03:37;;;;;;;35.75;24.58;;;8.50;99.90;;;;;;5049014;28;20505;-56
2022/12/26 07:06:15;;;;;;;32.58;24.77;;;8.50;99.90;;;;;;5049519;28;20032;-57
2022/12/26 07:08:41;;;;;;;38.30;26.73;;;8.40;99.90;;;;;;5051356;28;20508;-57
2022/12/26 07:11:14;;;;;;;34.27;25.30;;;8.40;99.90;;;;;;5051607;28;20037;-58
2022/12/26 07:13:41;;;;;;;40.83;27.25;;;8.40;99.90;;;;;;5050807;28;20271;-57
2022/12/26 07:16:06;;;;;;;35.58;25.65;;;8.40;99.90;;;;;;5051011;28;20048;-56
2022/12/26 07:18:32;;;;;;;35.80;25.37;;;8.30;99.90;;;;;;5083424;28;20040;-57
2022/12/26 07:20:57;;;;;;;33.90;25.40;;;8.40;99.90;;;;;;5051539;28;20036;-58
2022/12/26 07:23:23;;;;;;;38.37;27.00;;;8.30;99.90;;;;;;5049393;28;20032;-56
2022/12/26 07:25:49;;;;;;;37.33;25.53;;;8.30;99.90;;;;;;5037030;28;20112;-57
2022/12/26 07:28:15;;;;;;;36.20;25.87;;;8.30;99.90;;;;;;5038789;28;20063;-57
2022/12/26 07:30:47;;;;;;;37.00;25.92;;;8.30;99.90;;;;;;5083755;28;20371;-56
2022/12/26 07:33:13;;;;;;;34.70;25.02;;;8.20;99.90;;;;;;5050195;28;20041;-57
2022/12/26 07:35:38;;;;;;;35.73;24.73;;;8.20;99.90;;;;;;5050643;28;20535;-58
2022/12/26 07:38:05;;;;;;;36.07;25.13;;;8.30;99.90;;;;;;5048640;28;20201;-57
2022/12/26 07:40:30;;;;;;;32.20;22.75;;;8.30;99.90;;;;;;5053816;28;20048;-58
2022/12/26 07:42:56;;;;;;;43.20;25.50;;;8.30;99.90;;;;;;5050072;28;20406;-57
2022/12/26 07:45:21;;;;;;;34.60;24.70;;;8.30;99.90;;;;;;5050112;28;20167;-56
2022/12/26 07:47:47;;;;;;;33.87;23.50;;;8.30;99.90;;;;;;5050038;28;20048;-57
2022/12/26 07:50:12;;;;;;;31.90;24.20;;;8.20;99.90;;;;;;5051019;28;20045;-58
2022/12/26 07:52:38;;;;;;;29.75;22.55;;;8.20;99.90;;;;;;5050392;28;20037;-58
2022/12/26 07:55:04;;;;;;;27.53;21.40;;;8.20;99.90;;;;;;5050119;28;20513;-58
2022/12/26 07:57:29;;;;;;;28.55;19.77;;;8.20;99.90;;;;;;5049881;28;20045;-57
2022/12/26 07:59:55;;;;;;;30.77;20.43;;;8.20;99.90;;;;;;5050352;28;20041;-57
2022/12/26 08:02:21;;;;;;;29.73;21.47;;;8.20;99.90;;;;;;5050379;28;20041;-56
2022/12/26 08:04:46;;;;;;;26.67;18.75;;;8.20;99.90;;;;;;5049523;28;20041;-57
2022/12/26 08:07:12;;;;;;;26.53;19.63;;;8.20;99.90;;;;;;5050131;28;20122;-57
2022/12/26 08:09:41;;;;;;;28.23;19.00;;;8.30;99.90;;;;;;5048931;28;20037;-55
2022/12/26 08:12:07;;;;;;;27.35;17.70;;;8.20;99.90;;;;;;5049420;28;20061;-54
2022/12/26 08:14:35;;;;;;;26.35;19.10;;;8.20;99.90;;;;;;5031153;28;20044;-57
2022/12/26 08:17:00;;;;;;;24.70;17.42;;;8.20;99.90;;;;;;5049888;28;20048;-56
2022/12/26 08:19:26;;;;;;;24.30;16.87;;;8.20;99.90;;;;;;5050333;28;20525;-57
2022/12/26 08:21:51;;;;;;;19.63;16.57;;;8.20;99.90;;;;;;5050567;28;20505;-56
2022/12/26 08:24:17;;;;;;;20.30;16.53;;;8.20;99.90;;;;;;5049002;28;20103;-57
2022/12/26 08:26:43;;;;;;;19.60;14.90;;;8.30;99.90;;;;;;5048754;28;20108;-57
2022/12/26 08:29:09;;;;;;;19.43;14.97;;;8.30;99.90;;;;;;5049395;28;20052;-54
2022/12/26 08:31:34;;;;;;;19.70;13.77;;;8.40;99.90;;;;;;5050142;28;20036;-57
2022/12/26 08:34:00;;;;;;;17.63;13.13;;;8.40;99.90;;;;;;5049251;28;20149;-57
2022/12/26 08:36:26;;;;;;;16.50;12.47;;;8.40;99.90;;;;;;5049433;28;20094;-57
2022/12/26 08:38:52;;;;;;;14.52;12.70;;;8.40;99.90;;;;;;5049379;28;20049;-56
2022/12/26 08:41:17;;;;;;;15.98;12.27;;;8.40;99.90;;;;;;5049844;28;20032;-58
2022/12/26 08:43:46;;;;;;;14.77;10.73;;;8.50;99.90;;;;;;5048551;28;20037;-56
2022/12/26 08:46:12;;;;;;;15.65;10.63;;;8.50;99.90;;;;;;5048479;28;20048;-57
2022/12/26 08:48:39;;;;;;;12.73;10.40;;;8.60;99.90;;;;;;5048355;28;20040;-56
2022/12/26 08:51:07;;;;;;;;;;;8.70;99.90;;;;;;5049931;28;20295;-57
2022/12/26 08:53:34;;;;;;;14.43;9.57;;;8.80;99.90;;;;;;5049034;28;20126;-58
2022/12/26 08:56:01;;;;;;;10.65;8.15;;;9.00;99.90;;;;;;5048397;28;20041;-58
2022/12/26 08:58:27;;;;;;;11.88;8.68;;;9.10;99.90;;;;;;5049007;28;20052;-57
2022/12/26 09:00:53;;;;;;;9.30;8.00;;;9.10;99.90;;;;;;5049407;28;20037;-58
2022/12/26 09:03:19;;;;;;;10.05;7.30;;;9.20;99.90;;;;;;5049015;28;20040;-57
2022/12/26 09:05:45;;;;;;;10.25;8.45;;;9.20;99.90;;;;;;5049281;28;20116;-57
2022/12/26 09:08:11;;;;;;;11.03;7.93;;;9.10;99.90;;;;;;5048644;28;20120;-56
2022/12/26 09:10:37;;;;;;;11.38;8.13;;;9.10;99.90;;;;;;5049296;28;20055;-56
2022/12/26 09:13:02;;;;;;;9.85;7.38;;;9.10;99.90;;;;;;5048366;28;20513;-57
2022/12/26 09:15:28;;;;;;;13.53;7.87;;;9.10;99.90;;;;;;5049176;28;20041;-56
2022/12/26 09:17:53;;;;;;;12.03;7.70;;;9.10;99.90;;;;;;5048575;28;20400;-58
2022/12/26 09:20:19;;;;;;;11.33;7.43;;;9.10;99.90;;;;;;5049140;28;20295;-57
2022/12/26 09:22:50;;;;;;;14.03;8.70;;;9.20;99.90;;;;;;5053585;28;20705;-55
2022/12/26 09:25:18;;;;;;;12.70;6.82;;;9.20;99.90;;;;;;5052578;28;20029;-57
2022/12/26 09:27:44;;;;;;;11.02;6.75;;;9.30;99.90;;;;;;5053087;28;20044;-58
2022/12/26 09:30:10;;;;;;;9.20;7.20;;;9.40;99.90;;;;;;5053389;28;20036;-58
2022/12/26 09:32:36;;;;;;;10.52;6.75;;;9.40;99.90;;;;;;5053360;28;20099;-58
2022/12/26 09:35:02;;;;;;;13.88;8.18;;;9.40;99.90;;;;;;5052284;28;20079;-59
2022/12/26 09:37:28;;;;;;;8.52;7.13;;;9.40;99.90;;;;;;5052571;28;20045;-58
2022/12/26 09:39:53;;;;;;;14.23;7.82;;;9.40;99.90;;;;;;5052870;28;20068;-59
2022/12/26 09:42:36;;;;;;;20.30;8.33;;;9.40;99.90;;;;;;5052761;28;20505;-58
2022/12/26 09:45:17;;;;;;;11.13;6.18;;;9.50;99.90;;;;;;5052268;28;20037;-58
2022/12/26 09:48:27;;;;;;;11.55;5.15;;;9.50;99.90;;;;;;5051073;28;20509;-58
2022/12/26 09:50:53;;;;;;;9.63;4.50;;;9.50;99.90;;;;;;5014217;28;20068;-58
2022/12/26 09:53:27;;;;;;;12.77;4.73;;;9.60;99.90;;;;;;5027776;28;20053;-58
2022/12/26 09:56:03;;;;;;;10.90;4.55;;;9.60;99.90;;;;;;5040262;28;20048;-58
2022/12/26 09:58:35;;;;;;;5.60;2.90;;;9.60;99.90;;;;;;5052543;28;20040;-58
2022/12/26 10:01:15;;;;;;;6.70;3.85;;;9.60;99.90;;;;;;5052155;28;20039;-59
2022/12/26 10:03:46;;;;;;;10.95;4.60;;;9.60;99.90;;;;;;5052283;28;20040;-57
2022/12/26 10:06:19;;;;;;;6.50;3.05;;;9.70;99.90;;;;;;5051081;28;20038;-56
2022/12/26 10:08:54;;;;;;;12.60;4.78;;;9.70;99.90;;;;;;5052713;28;20033;-57
2022/12/26 10:11:36;;;;;;;8.95;3.72;;;9.70;99.90;;;;;;5052131;28;20045;-58
2022/12/26 10:14:25;;;;;;;5.00;3.28;;;9.70;99.90;;;;;;5051668;28;20091;-59
2022/12/26 10:16:53;;;;;;;6.65;3.72;;;9.80;99.90;;;;;;5052484;28;20055;-58
2022/12/26 10:19:43;;;;;;;7.13;3.63;;;9.70;99.90;;;;;;5052225;28;20052;-58
2022/12/26 10:22:24;;;;;;;7.18;2.88;;;9.80;99.90;;;;;;5052433;28;20036;-55
2022/12/26 10:24:50;;;;;;;7.10;2.78;;;9.70;99.90;;;;;;5051355;28;20049;-55
2022/12/26 10:27:19;;;;;;;6.93;2.22;;;9.70;99.90;;;;;;5050149;28;20073;-56
2022/12/26 10:30:03;;;;;;;10.43;2.58;;;9.70;99.90;;;;;;5051702;28;20043;-57
2022/12/26 10:32:35;;;;;;;9.80;1.75;;;9.70;99.90;;;;;;5052258;28;20393;-56
2022/12/26 10:35:19;;;;;;;4.05;1.63;;;9.70;99.90;;;;;;5050752;28;20106;-55
2022/12/26 10:37:46;;;;;;;10.20;1.52;;;9.50;99.90;;;;;;5052169;28;20087;-55
2022/12/26 10:40:19;;;;;;;16.58;1.85;;;9.40;99.90;;;;;;5049411;28;21079;-54
2022/12/26 10:42:59;;;;;;;10.35;1.48;;;9.10;99.90;;;;;;5065421;28;20029;-56
2022/12/26 10:45:57;;;;;;;16.50;1.50;;;8.90;99.90;;;;;;5056096;28;20052;-56
2022/12/26 10:48:25;;;;;;;8.52;2.67;;;8.80;99.90;;;;;;5049471;28;20045;-58
2022/12/26 10:50:51;;;;;;;6.40;1.00;;;8.60;99.90;;;;;;5051714;28;20044;-55
2022/12/26 10:53:17;;;;;;;9.18;0.98;;;8.50;99.90;;;;;;5051705;28;20084;-58
2022/12/26 10:55:43;;;;;;;5.75;1.75;;;8.40;99.90;;;;;;5050194;28;20060;-57
2022/12/26 10:58:15;;;;;;;8.48;1.25;;;8.40;99.90;;;;;;5051516;28;20044;-57
2022/12/26 11:00:41;;;;;;;5.45;0.52;;;8.60;99.90;;;;;;5051818;28;20041;-57
2022/12/26 11:03:12;;;;;;;9.73;0.70;;;8.80;99.90;;;;;;5051138;28;20040;-57
2022/12/26 11:05:44;;;;;;;13.27;1.85;;;9.10;99.90;;;;;;5050459;28;20279;-57
2022/12/26 11:08:21;;;;;;;9.48;0.73;;;9.10;99.90;;;;;;5050610;28;20530;-57
2022/12/26 11:11:25;;;;;;;7.10;0.70;;;9.10;99.90;;;;;;5051294;28;20433;-56
2022/12/26 11:13:57;;;;;;;6.20;0.77;;;9.00;99.90;;;;;;5049530;28;20052;-54
2022/12/26 11:16:29;;;;;;;6.47;0.88;;;8.80;99.90;;;;;;5050552;28;20120;-56
2022/12/26 11:18:55;;;;;;;11.25;0.80;;;8.70;99.90;;;;;;5043265;28;20037;-58
2022/12/26 11:21:24;;;;;;;8.57;0.75;;;8.60;99.90;;;;;;5051351;28;20076;-56
2022/12/26 11:24:10;;;;;;;4.72;0.40;;;8.50;99.90;;;;;;5050036;28;20037;-56
2022/12/26 11:26:37;;;;;;;5.47;0.88;;;8.40;99.90;;;;;;5050213;28;20754;-56
2022/12/26 11:29:20;;;;;;;6.72;0.70;;;8.40;99.90;;;;;;5050677;28;20745;-54
2022/12/26 11:31:52;;;;;;;6.07;1.38;;;8.30;99.90;;;;;;5051023;28;20124;-58
2022/12/26 11:34:27;;;;;;;5.13;1.10;;;8.20;99.90;;;;;;5050023;28;20087;-57
2022/12/26 11:36:54;;;;;;;8.30;1.27;;;8.10;99.90;;;;;;5050401;28;20045;-58
2022/12/26 11:39:30;;;;;;;6.50;0.93;;;8.10;99.90;;;;;;5049482;28;20040;-58
2022/12/26 11:41:57;;;;;;;5.65;0.45;;;8.10;99.90;;;;;;5050899;28;20506;-56
2022/12/26 11:44:25;;;;;;;;;;;8.00;99.90;;;;;;5049430;28;20037;-57
2022/12/26 11:47:23;;;;;;;6.63;0.77;;;7.90;99.90;;;;;;5050361;28;19975;-58
2022/12/26 11:49:59;;;;;;;6.32;1.48;;;7.90;99.90;;;;;;5050134;28;20425;-58
2022/12/26 11:52:56;;;;;;;4.57;0.60;;;7.80;99.90;;;;;;5051083;28;20376;-57
2022/12/26 11:55:32;;;;;;;8.90;0.85;;;7.80;99.90;;;;;;5049461;28;20075;-58
2022/12/26 11:58:23;;;;;;;8.07;0.40;;;7.80;99.90;;;;;;5050760;28;20072;-56
2022/12/26 12:00:49;;;;;;;14.75;0.82;;;7.80;99.90;;;;;;5048711;28;20052;-57
2022/12/26 12:03:25;;;;;;;7.30;0.80;;;7.80;99.90;;;;;;5056204;28;20032;-57
2022/12/26 12:06:00;;;;;;;10.45;0.80;;;7.70;99.90;;;;;;5049783;28;20402;-57
2022/12/26 12:08:28;;;;;;;10.77;0.73;;;7.70;99.90;;;;;;5050347;28;20047;-56
2022/12/26 12:11:15;;;;;;;13.45;0.88;;;7.70;99.90;;;;;;5050080;28;20052;-57
2022/12/26 12:13:54;;;;;;;8.13;0.60;;;7.70;99.90;;;;;;5049565;28;20037;-58
2022/12/26 12:16:38;;;;;;;16.25;1.20;;;7.70;99.90;;;;;;5049132;28;20053;-56
2022/12/26 12:19:20;;;;;;;12.88;2.17;;;7.70;99.90;;;;;;5050434;28;20037;-56
2022/12/26 12:22:14;;;;;;;17.35;1.48;;;7.70;99.90;;;;;;5049876;28;20041;-56
2022/12/26 12:24:49;;;;;;;11.90;1.58;;;7.80;99.90;;;;;;5048968;28;20037;-57
2022/12/26 12:27:24;;;;;;;6.53;0.80;;;7.80;99.90;;;;;;5049660;28;20037;-58
2022/12/26 12:30:13;;;;;;;10.48;0.95;;;7.90;99.90;;;;;;5050519;28;20076;-57
2022/12/26 12:33:05;;;;;;;11.63;1.50;;;7.90;99.90;;;;;;5049828;28;20441;-57
2022/12/26 12:35:59;;;;;;;6.43;1.42;;;8.50;99.90;;;;;;5049549;28;20464;-58
2022/12/26 12:38:37;;;;;;;8.38;0.80;;;8.90;99.90;;;;;;5049691;28;20060;-56
2022/12/26 12:41:21;;;;;;;5.25;0.60;;;9.10;99.90;;;;;;5050324;28;20120;-57
2022/12/26 12:44:15;;;;;;;18.40;1.60;;;9.60;99.90;;;;;;5049206;28;20072;-58
2022/12/26 12:46:49;;;;;;;11.93;1.75;;;10.40;99.90;;;;;;5048111;28;20124;-58
2022/12/26 12:49:33;;;;;;;21.73;2.28;;;11.10;99.90;;;;;;5049762;28;20041;-56
2022/12/26 12:52:20;;;;;;;8.68;1.23;;;11.70;99.90;;;;;;5049775;28;20044;-57
2022/12/26 12:55:19;;;;;;;11.07;1.70;;;12.70;99.90;;;;;;5048572;28;20052;-57
2022/12/26 12:58:22;;;;;;;17.27;1.65;;;13.80;99.90;;;;;;5048046;28;20532;-56
2022/12/26 13:00:58;;;;;;;9.23;1.25;;;14.60;99.50;;;;;;5041363;28;20048;-57
2022/12/26 13:03:47;;;;;;;7.40;1.13;;;14.00;96.20;;;;;;5048645;28;20041;-58
2022/12/26 13:06:24;;;;;;;10.73;1.40;;;12.70;94.60;;;;;;5037793;28;20146;-56
2022/12/26 13:08:59;;;;;;;10.48;1.27;;;11.70;96.90;;;;;;5048936;28;20055;-56
2022/12/26 13:11:33;;;;;;;11.60;1.80;;;10.80;97.60;;;;;;5049305;28;20214;-56
2022/12/26 13:14:25;;;;;;;10.73;1.13;;;10.00;99.90;;;;;;5048457;28;20073;-57
2022/12/26 13:17:03;;;;;;;16.70;1.75;;;9.60;99.90;;;;;;5048233;28;20494;-57
2022/12/26 13:19:42;;;;;;;15.10;1.52;;;9.00;99.90;;;;;;5049401;28;20393;-58
2022/12/26 13:22:22;;;;;;;10.15;1.35;;;8.60;99.90;;;;;;5047941;28;20413;-55
2022/12/26 13:24:55;;;;;;;12.35;1.17;;;8.30;99.90;;;;;;5034843;28;20043;-57
2022/12/26 13:27:26;;;;;;;9.65;1.67;;;8.20;99.90;;;;;;5047090;28;20056;-57
2022/12/26 13:29:52;;;;;;;16.88;1.90;;;8.10;99.90;;;;;;5035633;28;20460;-56
2022/12/26 13:32:24;;;;;;;;;;;8.10;99.90;;;;;;5040541;28;20046;-55
2022/12/26 13:34:52;;;;;;;12.73;3.03;;;8.10;99.90;;;;;;5047508;28;20178;-58
2022/12/26 13:37:36;;;;;;;12.80;2.35;;;8.20;99.90;;;;;;5048087;28;20107;-55
2022/12/26 13:40:11;;;;;;;18.05;3.35;;;8.50;99.90;;;;;;5048865;28;20052;-58
2022/12/26 13:45:41;;;;;;;17.95;3.25;;;8.40;99.90;;;;;;5036401;28;20037;-57
2022/12/26 13:48:15;;;;;;;14.25;3.28;;;8.00;99.90;;;;;;5047787;28;20047;-56
2022/12/26 13:51:02;;;;;;;11.43;2.95;;;7.60;99.90;;;;;;5045238;28;20047;-57
2022/12/26 13:53:37;;;;;;;15.93;2.93;;;7.40;99.90;;;;;;5047673;28;20037;-56
2022/12/26 13:56:29;;;;;;;16.60;3.40;;;7.30;99.90;;;;;;5048223;28;20040;-56
2022/12/26 13:59:25;;;;;;;17.88;3.45;;;7.40;99.90;;;;;;5036088;28;20045;-57
2022/12/26 14:02:07;;;;;;;19.90;3.53;;;7.60;99.90;;;;;;5047754;28;20037;-57
2022/12/26 14:05:10;;;;;;;17.33;3.58;;;7.70;99.90;;;;;;5047433;28;20037;-55
2022/12/26 14:07:59;;;;;;;14.48;2.15;;;7.70;99.90;;;;;;5050094;28;20317;-57
2022/12/26 14:10:39;;;;;;;13.85;2.38;;;7.70;99.90;;;;;;5052735;28;20029;-57
2022/12/26 14:13:25;;;;;;;10.52;1.38;;;7.60;99.90;;;;;;5051250;28;20044;-56
2022/12/26 14:16:22;;;;;;;13.45;2.47;;;7.50;99.90;;;;;;5052376;28;20045;-55
2022/12/26 14:19:05;;;;;;;12.98;2.08;;;7.60;99.90;;;;;;5050742;28;20053;-57
2022/12/26 14:21:42;;;;;;;14.75;2.20;;;7.70;99.90;;;;;;5052180;28;20072;-55
2022/12/26 14:24:10;;;;;;;11.68;1.98;;;7.60;99.90;;;;;;5046531;28;20099;-57
2022/12/26 14:26:44;;;;;;;15.90;2.63;;;7.40;99.90;;;;;;5034398;28;20041;-55
2022/12/26 14:29:21;;;;;;;14.00;1.58;;;7.20;99.90;;;;;;5046405;28;20053;-58
2022/12/26 14:32:06;;;;;;;12.25;1.85;;;7.00;99.90;;;;;;5050750;28;20052;-57
2022/12/26 14:34:51;;;;;;;10.45;1.30;;;6.90;99.90;;;;;;5037864;28;20163;-56
2022/12/26 14:37:46;;;;;;;17.40;1.52;;;6.70;99.90;;;;;;5051370;28;20037;-58
2022/12/26 14:40:27;;;;;;;15.15;2.05;;;6.60;99.90;;;;;;5051602;28;20052;-55
2022/12/26 14:43:10;;;;;;;13.63;2.22;;;6.50;99.90;;;;;;5050826;28;20508;-57
2022/12/26 14:45:41;;;;;;;12.18;2.33;;;6.40;99.90;;;;;;5051339;28;20037;-55
2022/12/26 14:48:32;;;;;;;14.80;3.00;;;6.30;99.90;;;;;;5051463;28;20382;-57
2022/12/26 14:51:13;;;;;;;12.88;2.88;;;6.20;99.90;;;;;;5051281;28;20095;-56
2022/12/26 14:53:39;;;;;;;11.15;2.78;;;6.10;99.90;;;;;;5050537;28;20105;-57
2022/12/26 14:56:09;;;;;;;15.52;1.95;;;6.00;99.90;;;;;;5051236;28;20037;-56
2022/12/26 14:58:40;;;;;;;8.07;1.88;;;5.90;99.90;;;;;;5049944;28;20048;-56
2022/12/26 15:01:09;;;;;;;11.38;2.92;;;5.80;99.90;;;;;;5051626;28;20040;-56
2022/12/26 15:03:54;;;;;;;17.63;3.63;;;5.70;99.90;;;;;;5050398;28;20611;-56
2022/12/26 15:06:19;;;;;;;9.65;2.17;;;5.60;99.90;;;;;;5051439;28;20048;-57
2022/12/26 15:09:03;;;;;;;12.47;3.27;;;5.50;99.90;;;;;;5050894;28;20040;-55
2022/12/26 15:12:00;;;;;;;22.90;7.68;;;5.50;99.90;;;;;;5051738;28;20045;-56
2022/12/26 15:14:44;;;;;;;9.60;2.35;;;5.50;99.90;;;;;;5050545;28;20669;-55
2022/12/26 15:17:21;;;;;;;13.63;1.48;;;5.40;99.90;;;;;;5051137;28;20049;-56
2022/12/26 15:20:05;;;;;;;;;;;5.30;99.90;;;;;;5051803;28;20087;-55
2022/12/26 15:23:00;;;;;;;17.23;2.17;;;5.30;99.90;;;;;;5050719;28;19926;-57
2022/12/26 15:25:48;;;;;;;9.27;1.48;;;5.30;99.90;;;;;;5042834;28;20073;-57